createdAt,value
2019-05-23T00:04:54.693Z,99336.69
2019-05-23T00:14:55.349Z,99335.52
2019-05-23T00:24:58.774Z,99346.03
2019-05-23T00:35:00.016Z,99336.79
2019-05-23T00:45:04.871Z,99327.48
2019-05-23T00:55:06.808Z,99326.01
2019-05-23T01:05:08.670Z,99325.22
2019-05-23T01:15:10.255Z,99326.77
2019-05-23T01:25:11.081Z,99329.77
2019-05-23T01:35:12.613Z,99311.11
2019-05-23T01:45:13.520Z,99310.83
2019-05-23T01:55:14.299Z,99312.80
2019-05-23T02:05:16.997Z,99310.15
2019-05-23T02:15:21.812Z,99303.25
2019-05-23T02:25:27.536Z,99309.97
2019-05-23T02:35:29.402Z,99320.09
2019-05-23T02:45:30.780Z,99318.34
2019-05-23T02:55:34.633Z,99308.24
2019-05-23T03:05:36.172Z,99311.25
2019-05-23T03:15:37.821Z,99306.85
2019-05-23T03:25:45.177Z,99309.20
2019-05-23T03:35:46.295Z,99304.26
2019-05-23T03:45:47.080Z,99294.16
2019-05-23T03:55:47.890Z,99297.25
2019-05-23T04:05:48.733Z,99294.64
2019-05-23T04:15:49.535Z,99289.61
2019-05-23T04:25:51.334Z,99289.27
2019-05-23T04:35:53.000Z,99301.80
2019-05-23T04:45:53.653Z,99298.44
2019-05-23T04:55:54.322Z,99294.64
2019-05-23T05:05:55.223Z,99300.53
2019-05-23T05:15:55.903Z,99297.56
2019-05-23T05:25:56.593Z,99298.99
2019-05-23T05:35:57.274Z,99304.77
2019-05-23T05:45:59.065Z,99310.58
2019-05-23T05:55:59.881Z,99305.99
2019-05-23T06:06:00.750Z,99307.55
2019-05-23T06:16:01.517Z,99318.23
2019-05-23T06:26:02.187Z,99326.48
2019-05-23T06:36:02.998Z,99326.67
2019-05-23T06:46:04.177Z,99328.29
2019-05-23T06:56:05.851Z,99334.30
2019-05-23T07:06:07.291Z,99333.23
2019-05-23T07:16:08.189Z,99343.12
2019-05-23T07:26:09.123Z,99340.24
2019-05-23T07:36:09.811Z,99345.02
2019-05-23T07:46:10.496Z,99335.36
2019-05-23T07:56:11.245Z,99327.16
2019-05-23T08:06:11.936Z,99332.94
2019-05-23T08:16:12.562Z,99334.31
2019-05-23T08:26:13.299Z,99317.47
2019-05-23T08:36:14.055Z,99316.63
2019-05-23T08:46:14.714Z,99317.03
2019-05-23T08:56:18.804Z,99313.40
2019-05-23T09:06:18.048Z,99305.48
2019-05-23T09:16:18.727Z,99299.69
2019-05-23T09:26:19.664Z,99291.39
2019-05-23T09:36:20.488Z,99287.38
2019-05-23T09:46:21.453Z,99295.34
2019-05-23T09:56:22.124Z,99287.45
2019-05-23T10:06:22.833Z,99282.17
2019-05-23T10:16:23.493Z,99280.11
2019-05-23T10:26:24.172Z,99264.69
2019-05-23T10:36:24.871Z,99266.92
2019-05-23T10:46:25.636Z,99250.16
2019-05-23T10:56:26.305Z,99249.07
2019-05-23T11:06:27.059Z,99238.70
2019-05-23T11:16:27.766Z,99231.99
2019-05-23T11:26:28.463Z,99216.50
2019-05-23T11:36:35.327Z,99210.41
2019-05-23T11:46:31.947Z,99199.42
2019-05-23T11:56:32.579Z,99193.98
2019-05-23T12:06:33.270Z,99189.80
2019-05-23T12:16:33.998Z,99180.84
2019-05-23T12:26:34.660Z,99169.85
2019-05-23T12:36:35.327Z,99156.45
2019-05-23T12:46:36.014Z,99150.48
2019-05-23T12:56:36.750Z,99148.89
2019-05-23T13:06:37.823Z,99140.63
2019-05-23T13:16:38.499Z,99131.03
2019-05-23T13:26:39.239Z,99125.77
2019-05-23T13:36:41.037Z,99122.59
2019-05-23T13:46:41.688Z,99107.03
2019-05-23T13:56:47.207Z,99098.66
2019-05-23T14:06:45.035Z,99091.82
2019-05-23T14:16:45.689Z,99072.53
2019-05-23T14:26:47.554Z,99070.14
2019-05-23T14:36:48.296Z,99068.22
2019-05-23T14:46:48.974Z,99056.58
2019-05-23T14:56:49.770Z,99054.63
2019-05-23T15:06:50.533Z,99059.83
2019-05-23T15:16:51.200Z,99043.33
2019-05-23T15:26:51.884Z,99037.58
2019-05-23T15:36:52.536Z,99022.17
2019-05-23T15:46:53.232Z,99018.44
2019-05-23T15:56:54.015Z,99014.60
2019-05-23T16:06:56.314Z,99013.03
2019-05-23T16:16:57.365Z,99012.74
2019-05-23T16:26:58.200Z,99001.42
2019-05-23T16:36:58.969Z,98990.45
2019-05-23T16:46:59.749Z,98987.25
2019-05-23T16:57:01.564Z,98987.51
2019-05-23T17:07:02.216Z,98984.48
2019-05-23T17:17:05.643Z,98980.84
2019-05-23T17:27:05.457Z,98970.34
2019-05-23T17:37:06.341Z,98972.91
2019-05-23T17:47:07.003Z,98963.97
2019-05-23T17:57:07.740Z,98969.80
2019-05-23T18:07:08.550Z,98967.41
2019-05-23T18:17:10.198Z,98964.09
2019-05-23T18:27:10.923Z,98962.72
2019-05-23T18:37:11.715Z,98963.23
2019-05-23T18:47:12.374Z,98961.95
2019-05-23T18:57:13.047Z,98962.72
2019-05-23T19:07:13.798Z,98944.50
2019-05-23T19:17:15.647Z,98952.70
2019-05-23T19:27:16.317Z,98960.62
2019-05-23T19:37:18.209Z,98964.80
2019-05-23T19:47:20.951Z,98960.41
2019-05-23T19:57:21.772Z,98955.75
2019-05-23T20:07:22.889Z,98963.64
2019-05-23T20:17:23.643Z,98959.89
2019-05-23T20:27:24.418Z,98965.00
2019-05-23T20:37:25.252Z,98963.18
2019-05-23T20:47:25.906Z,98981.34
2019-05-23T20:57:26.804Z,98984.27
2019-05-23T21:07:28.742Z,98974.70
2019-05-23T21:17:29.524Z,98970.65
2019-05-23T21:27:30.253Z,98986.02
2019-05-23T21:37:30.995Z,98983.11
2019-05-23T21:47:31.760Z,98990.73
2019-05-23T21:57:32.437Z,98984.32
2019-05-23T22:07:33.615Z,98969.73
2019-05-23T22:17:34.313Z,98974.09
2019-05-23T22:27:36.923Z,98963.60
2019-05-23T22:37:37.592Z,98952.30
2019-05-23T22:47:38.283Z,98961.46
2019-05-23T22:57:38.896Z,98961.03
2019-05-23T23:07:39.664Z,98965.59
2019-05-23T23:17:40.541Z,98974.95
2019-05-23T23:27:41.216Z,98972.33
2019-05-23T23:37:42.115Z,98971.72
2019-05-23T23:47:42.902Z,98968.70
2019-05-23T23:57:43.617Z,98962.14
